Language selection

Weather shortcuts

Lake of the Woods: Past 24 Hour Conditions

 

Welcome Island

02:00 PM EDT 14 June 2024
Disclaimer

This table is a summary of hourly weather conditions for the past 24 hours.
Please note that these observations might not always be representative of weather conditions over their associated marine area.

Date / Time
(EDT)
Wind(knots) Conditions Visibility(km) Pressure(kPa) Air tempC) Relative humidity(%) Dew pointC)
14 June 2024
14:00 SSE 12 N/A N/A 102.0 12 68 6
13:00 SSE 12 N/A N/A 102.0 11 69 6
12:00 SSE 11 N/A N/A 102.0 12 72 7
11:00 SSE 9 N/A N/A 102.0 11 76 7
10:00 SSE 6 N/A N/A 102.0 13 75 8
9:00 ENE 7 N/A N/A 101.9 12 75 8
8:00 ENE 5 N/A N/A 101.8 12 77 8
7:00 NE 2 N/A N/A 101.8 11 78 7
6:00 NNE 5 N/A N/A 101.7 11 79 8
5:00 NNE 7 N/A N/A 101.5 12 71 7
4:00 NNE 7 N/A N/A 101.4 12 76 8
3:00 NW 6 N/A N/A 101.3 13 77 9
2:00 NNW 9 N/A N/A 101.3 13 81 10
1:00 NW 6 N/A N/A 101.2 13 92 12
0:00 W 4 N/A N/A 101.2 13 87 11
13 June 2024
23:00 SSE 2 N/A N/A 101.2 15 79 11
22:00 SSE 4 N/A N/A 101.1 14 82 11
21:00 SE 4 N/A N/A 101.0 17 71 11
20:00 ESE 6 N/A N/A 101.0 16 75 12
19:00 WNW 9 N/A N/A 100.9 17 70 12
18:00 NE 3 N/A N/A 100.8 15 84 12
17:00 NNE 1 N/A N/A 100.8 14 87 12
16:00 SW 5 N/A N/A 100.8 13 93 12
15:00 SSW 11 N/A N/A 100.8 13 84 11
14:00 NE 9 N/A N/A 100.6 15 70 9

Zoom-in to make a selection

Map of Great Lakes - Lake Superior marine weather areas Mid Superior - 45001 East Superior - 45004 West Superior - 45006 Slate Island - 45136 Lake Of the Woods - 45148 Kenora Airport Royal Island Armstrong Airport Caribou Island Marathon Airport Pukaskwa National Park Thunder Bay Airport Welcome Island Little Flatland Island Sault Ste. Marie Airport Wawa Airport
Legend:
buoy Buoy
land station Land Station

Great Lakes - Lake Superior Area

Another Region

Features

New Predicting and Alerting Coastal Flooding Program

Find out about coastal flooding coverage, forecasts and warnings in your region

Date modified: